KLMT/LMT METAR and TAF weather

Enter ICAO airport designator
Station Type Date Time Source
KLMT METAR 2020/01/24 09:05 UTC NOAA

KLMT 240905Z AUTO 25010KT 5SM RA BR FEW022 BKN029 OVC035 03/02 A3002 RMK AO2 P0003 T00330022


Station Type Date Time Source
KLMT Decoded METAR 2020/01/24 09:05 UTC NOAA

KLAMATH FALLS INTERNATIONAL AIRPORT, OR, United States (KLMT) 42-09N 121-43W 1246M
Jan 24, 2020 - 04:05 AM EST / 2020.01.24 0905 UTC
Wind: from the WSW (250 degrees) at 12 MPH (10 KT):0
Visibility: 5 mile(s):0
Sky conditions: overcast
Weather: rain; mist
Precipitation last hour: 0.03 inches
Temperature: 37.9 F (3.3 C)
Dew Point: 36.0 F (2.2 C)
Relative Humidity: 92%
Pressure (altimeter): 30.02 in. Hg (1016 hPa)
ob: KLMT 240905Z AUTO 25010KT 5SM RA BR FEW022 BKN029 OVC035 03/02 A3002 RMK AO2 P0003 T00330022
cycle: 9

Station Type Date Time Source
KLMT TAF 2020/01/24 06:22 UTC NOAA

TAF KLMT 240520Z 2406/2506 18008KT P6SM -RA SCT040 OVC060
FM241100 20004KT P6SM -SHRA OVC015
FM241600 VRB03KT P6SM SCT030
FM241800 20005KT P6SM OVC050

Example: see airport list